sensor_id;sensor_type;location;lat;lon;timestamp;temperature;humidity
23681;DHT22;62915;50.832;4.462;2023-04-03T00:00:08;5.30;99.90
23681;DHT22;62915;50.832;4.462;2023-04-03T00:02:34;5.40;99.90
23681;DHT22;62915;50.832;4.462;2023-04-03T00:05:00;5.30;99.90
23681;DHT22;62915;50.832;4.462;2023-04-03T00:07:26;5.30;99.90
23681;DHT22;62915;50.832;4.462;2023-04-03T00:09:52;5.20;99.90
23681;DHT22;62915;50.832;4.462;2023-04-03T00:12:18;5.30;99.90
23681;DHT22;62915;50.832;4.462;2023-04-03T00:14:44;5.20;99.90
23681;DHT22;62915;50.832;4.462;2023-04-03T00:17:09;5.30;99.90
23681;DHT22;62915;50.832;4.462;2023-04-03T00:19:35;5.30;99.90
23681;DHT22;62915;50.832;4.462;2023-04-03T00:22:01;5.20;99.90
23681;DHT22;62915;50.832;4.462;2023-04-03T00:24:27;5.20;99.90
23681;DHT22;62915;50.832;4.462;2023-04-03T00:26:52;5.10;99.90
23681;DHT22;62915;50.832;4.462;2023-04-03T00:29:18;5.10;99.90
23681;DHT22;62915;50.832;4.462;2023-04-03T00:31:44;5.10;99.90
23681;DHT22;62915;50.832;4.462;2023-04-03T00:34:09;5.00;99.90
23681;DHT22;62915;50.832;4.462;2023-04-03T00:36:35;4.90;99.90
23681;DHT22;62915;50.832;4.462;2023-04-03T00:39:01;4.90;99.90
23681;DHT22;62915;50.832;4.462;2023-04-03T00:41:27;4.90;99.90
23681;DHT22;62915;50.832;4.462;2023-04-03T00:43:52;5.00;99.90
23681;DHT22;62915;50.832;4.462;2023-04-03T00:46:18;5.00;99.90
23681;DHT22;62915;50.832;4.462;2023-04-03T00:48:46;4.90;99.90
23681;DHT22;62915;50.832;4.462;2023-04-03T00:51:25;4.90;99.90
23681;DHT22;62915;50.832;4.462;2023-04-03T00:54:00;4.80;99.90
23681;DHT22;62915;50.832;4.462;2023-04-03T00:56:28;4.90;99.90
23681;DHT22;62915;50.832;4.462;2023-04-03T00:59:04;4.90;99.90
23681;DHT22;62915;50.832;4.462;2023-04-03T01:01:33;4.80;99.90
23681;DHT22;62915;50.832;4.462;2023-04-03T01:04:00;4.80;99.90
23681;DHT22;62915;50.832;4.462;2023-04-03T01:06:31;4.90;99.90
23681;DHT22;62915;50.832;4.462;2023-04-03T01:08:59;4.90;99.90
23681;DHT22;62915;50.832;4.462;2023-04-03T01:11:26;4.90;99.90
23681;DHT22;62915;50.832;4.462;2023-04-03T01:13:53;4.80;99.90
23681;DHT22;62915;50.832;4.462;2023-04-03T01:16:19;4.80;99.90
23681;DHT22;62915;50.832;4.462;2023-04-03T01:18:45;4.80;99.90
23681;DHT22;62915;50.832;4.462;2023-04-03T01:21:28;4.80;99.90
23681;DHT22;62915;50.832;4.462;2023-04-03T01:26:34;4.70;99.90
23681;DHT22;62915;50.832;4.462;2023-04-03T01:29:01;4.70;99.90
23681;DHT22;62915;50.832;4.462;2023-04-03T01:34:10;4.70;99.90
23681;DHT22;62915;50.832;4.462;2023-04-03T01:36:36;4.60;99.90
23681;DHT22;62915;50.832;4.462;2023-04-03T01:39:02;4.60;99.90
23681;DHT22;62915;50.832;4.462;2023-04-03T01:41:28;4.60;99.90
23681;DHT22;62915;50.832;4.462;2023-04-03T01:43:54;4.50;99.90
23681;DHT22;62915;50.832;4.462;2023-04-03T01:46:21;4.40;99.90
23681;DHT22;62915;50.832;4.462;2023-04-03T01:48:47;4.20;99.90
23681;DHT22;62915;50.832;4.462;2023-04-03T01:51:14;4.40;99.90
23681;DHT22;62915;50.832;4.462;2023-04-03T01:53:43;4.50;99.90
23681;DHT22;62915;50.832;4.462;2023-04-03T01:56:08;4.60;99.90
23681;DHT22;62915;50.832;4.462;2023-04-03T01:58:34;4.60;99.90
23681;DHT22;62915;50.832;4.462;2023-04-03T02:01:00;4.50;99.90
23681;DHT22;62915;50.832;4.462;2023-04-03T02:03:27;4.50;99.90
23681;DHT22;62915;50.832;4.462;2023-04-03T02:05:52;4.60;99.90
23681;DHT22;62915;50.832;4.462;2023-04-03T02:08:18;4.50;99.90
23681;DHT22;62915;50.832;4.462;2023-04-03T02:10:46;4.50;99.90
23681;DHT22;62915;50.832;4.462;2023-04-03T02:13:12;4.30;99.90
23681;DHT22;62915;50.832;4.462;2023-04-03T02:15:38;4.40;99.90
23681;DHT22;62915;50.832;4.462;2023-04-03T02:18:05;4.30;99.90
23681;DHT22;62915;50.832;4.462;2023-04-03T02:20:31;4.30;99.90
23681;DHT22;62915;50.832;4.462;2023-04-03T02:22:57;4.50;99.90
23681;DHT22;62915;50.832;4.462;2023-04-03T02:25:23;4.60;99.90
23681;DHT22;62915;50.832;4.462;2023-04-03T02:27:48;4.60;99.90
23681;DHT22;62915;50.832;4.462;2023-04-03T02:30:14;4.60;99.90
23681;DHT22;62915;50.832;4.462;2023-04-03T02:32:41;4.50;99.90
23681;DHT22;62915;50.832;4.462;2023-04-03T02:35:08;4.50;99.90
23681;DHT22;62915;50.832;4.462;2023-04-03T02:37:34;4.50;99.90
23681;DHT22;62915;50.832;4.462;2023-04-03T02:40:01;4.50;99.90
23681;DHT22;62915;50.832;4.462;2023-04-03T02:42:37;4.50;99.90
23681;DHT22;62915;50.832;4.462;2023-04-03T02:45:18;4.50;99.90
23681;DHT22;62915;50.832;4.462;2023-04-03T02:47:45;4.40;99.90
23681;DHT22;62915;50.832;4.462;2023-04-03T02:50:12;4.40;99.90
23681;DHT22;62915;50.832;4.462;2023-04-03T02:52:39;4.40;99.90
23681;DHT22;62915;50.832;4.462;2023-04-03T02:55:08;4.30;99.90
23681;DHT22;62915;50.832;4.462;2023-04-03T02:57:38;4.20;99.90
23681;DHT22;62915;50.832;4.462;2023-04-03T03:00:04;4.20;99.90
23681;DHT22;62915;50.832;4.462;2023-04-03T03:02:30;4.00;99.90
23681;DHT22;62915;50.832;4.462;2023-04-03T03:04:56;4.10;99.90
23681;DHT22;62915;50.832;4.462;2023-04-03T03:07:22;4.20;99.90
23681;DHT22;62915;50.832;4.462;2023-04-03T03:09:47;4.20;99.90
23681;DHT22;62915;50.832;4.462;2023-04-03T03:12:13;4.30;99.90
23681;DHT22;62915;50.832;4.462;2023-04-03T03:14:39;4.10;99.90
23681;DHT22;62915;50.832;4.462;2023-04-03T03:17:06;4.20;99.90
23681;DHT22;62915;50.832;4.462;2023-04-03T03:19:31;4.10;99.90
23681;DHT22;62915;50.832;4.462;2023-04-03T03:21:57;4.10;99.90
23681;DHT22;62915;50.832;4.462;2023-04-03T03:24:23;4.10;99.90
23681;DHT22;62915;50.832;4.462;2023-04-03T03:26:48;4.00;99.90
23681;DHT22;62915;50.832;4.462;2023-04-03T03:29:14;4.00;99.90
23681;DHT22;62915;50.832;4.462;2023-04-03T03:31:40;4.00;99.90
23681;DHT22;62915;50.832;4.462;2023-04-03T03:34:05;4.10;99.90
23681;DHT22;62915;50.832;4.462;2023-04-03T03:36:31;4.00;99.90
23681;DHT22;62915;50.832;4.462;2023-04-03T03:38:57;4.00;99.90
23681;DHT22;62915;50.832;4.462;2023-04-03T03:41:23;3.90;99.90
23681;DHT22;62915;50.832;4.462;2023-04-03T03:43:49;3.90;99.90
23681;DHT22;62915;50.832;4.462;2023-04-03T03:46:15;3.90;99.90
23681;DHT22;62915;50.832;4.462;2023-04-03T03:48:40;4.00;99.90
23681;DHT22;62915;50.832;4.462;2023-04-03T03:51:06;4.00;99.90
23681;DHT22;62915;50.832;4.462;2023-04-03T03:53:32;4.00;99.90
23681;DHT22;62915;50.832;4.462;2023-04-03T03:55:58;4.00;99.90
23681;DHT22;62915;50.832;4.462;2023-04-03T03:58:23;4.00;99.90
23681;DHT22;62915;50.832;4.462;2023-04-03T04:00:49;3.90;99.90
23681;DHT22;62915;50.832;4.462;2023-04-03T04:03:15;3.90;99.90
23681;DHT22;62915;50.832;4.462;2023-04-03T04:05:41;3.90;99.90
23681;DHT22;62915;50.832;4.462;2023-04-03T04:08:06;3.80;99.90
23681;DHT22;62915;50.832;4.462;2023-04-03T04:10:33;3.80;99.90
23681;DHT22;62915;50.832;4.462;2023-04-03T04:12:59;3.80;99.90
23681;DHT22;62915;50.832;4.462;2023-04-03T04:15:25;3.60;99.90
23681;DHT22;62915;50.832;4.462;2023-04-03T04:17:51;3.50;99.90
23681;DHT22;62915;50.832;4.462;2023-04-03T04:20:17;3.60;99.90
23681;DHT22;62915;50.832;4.462;2023-04-03T04:22:42;3.70;99.90
23681;DHT22;62915;50.832;4.462;2023-04-03T04:25:08;3.60;99.90
23681;DHT22;62915;50.832;4.462;2023-04-03T04:27:34;3.60;99.90
23681;DHT22;62915;50.832;4.462;2023-04-03T04:30:00;3.50;99.90
23681;DHT22;62915;50.832;4.462;2023-04-03T04:32:26;3.60;99.90
23681;DHT22;62915;50.832;4.462;2023-04-03T04:34:52;3.60;99.90
23681;DHT22;62915;50.832;4.462;2023-04-03T04:37:17;3.60;99.90
23681;DHT22;62915;50.832;4.462;2023-04-03T04:39:43;3.60;99.90
23681;DHT22;62915;50.832;4.462;2023-04-03T04:42:09;3.60;99.90
23681;DHT22;62915;50.832;4.462;2023-04-03T04:44:39;3.60;99.90
23681;DHT22;62915;50.832;4.462;2023-04-03T04:47:05;3.60;99.90
23681;DHT22;62915;50.832;4.462;2023-04-03T04:49:31;3.60;99.90
23681;DHT22;62915;50.832;4.462;2023-04-03T04:51:57;3.60;99.90
23681;DHT22;62915;50.832;4.462;2023-04-03T04:54:23;3.50;99.90
23681;DHT22;62915;50.832;4.462;2023-04-03T04:56:48;3.60;99.90
23681;DHT22;62915;50.832;4.462;2023-04-03T04:59:14;3.60;99.90
23681;DHT22;62915;50.832;4.462;2023-04-03T05:01:40;3.60;99.90
23681;DHT22;62915;50.832;4.462;2023-04-03T05:04:06;3.50;99.90
23681;DHT22;62915;50.832;4.462;2023-04-03T05:06:34;3.50;99.90
23681;DHT22;62915;50.832;4.462;2023-04-03T05:09:01;3.60;99.90
23681;DHT22;62915;50.832;4.462;2023-04-03T05:11:26;3.60;99.90
23681;DHT22;62915;50.832;4.462;2023-04-03T05:13:52;3.50;99.90
23681;DHT22;62915;50.832;4.462;2023-04-03T05:16:18;3.50;99.90
23681;DHT22;62915;50.832;4.462;2023-04-03T05:18:43;3.60;99.90
23681;DHT22;62915;50.832;4.462;2023-04-03T05:21:09;3.40;99.90
23681;DHT22;62915;50.832;4.462;2023-04-03T05:23:35;3.50;99.90
23681;DHT22;62915;50.832;4.462;2023-04-03T05:26:00;3.60;99.90
23681;DHT22;62915;50.832;4.462;2023-04-03T05:28:26;3.50;99.90
23681;DHT22;62915;50.832;4.462;2023-04-03T05:30:56;3.50;99.90
23681;DHT22;62915;50.832;4.462;2023-04-03T05:33:25;3.60;99.90
23681;DHT22;62915;50.832;4.462;2023-04-03T05:35:52;3.60;99.90
23681;DHT22;62915;50.832;4.462;2023-04-03T05:38:18;3.60;99.90
23681;DHT22;62915;50.832;4.462;2023-04-03T05:40:44;3.60;99.90
23681;DHT22;62915;50.832;4.462;2023-04-03T05:43:10;3.50;99.90
23681;DHT22;62915;50.832;4.462;2023-04-03T05:45:35;3.50;99.90
23681;DHT22;62915;50.832;4.462;2023-04-03T05:48:01;3.50;99.90
23681;DHT22;62915;50.832;4.462;2023-04-03T05:50:27;3.50;99.90
23681;DHT22;62915;50.832;4.462;2023-04-03T05:52:56;3.60;99.90
23681;DHT22;62915;50.832;4.462;2023-04-03T05:55:23;3.70;99.90
23681;DHT22;62915;50.832;4.462;2023-04-03T05:57:49;3.70;99.90
23681;DHT22;62915;50.832;4.462;2023-04-03T06:00:16;3.60;99.90
23681;DHT22;62915;50.832;4.462;2023-04-03T06:02:43;3.60;99.90
23681;DHT22;62915;50.832;4.462;2023-04-03T06:05:09;3.70;99.90
23681;DHT22;62915;50.832;4.462;2023-04-03T06:07:37;3.70;99.90
23681;DHT22;62915;50.832;4.462;2023-04-03T06:10:03;3.70;99.90
23681;DHT22;62915;50.832;4.462;2023-04-03T06:12:29;3.70;99.90
23681;DHT22;62915;50.832;4.462;2023-04-03T06:14:55;3.70;99.90
23681;DHT22;62915;50.832;4.462;2023-04-03T06:17:21;3.70;99.90
23681;DHT22;62915;50.832;4.462;2023-04-03T06:19:47;3.70;99.90
23681;DHT22;62915;50.832;4.462;2023-04-03T06:22:13;3.70;99.90
23681;DHT22;62915;50.832;4.462;2023-04-03T06:24:39;3.80;99.90
23681;DHT22;62915;50.832;4.462;2023-04-03T06:27:05;3.80;99.90
23681;DHT22;62915;50.832;4.462;2023-04-03T06:29:31;3.80;99.90
23681;DHT22;62915;50.832;4.462;2023-04-03T06:31:57;3.80;99.90
23681;DHT22;62915;50.832;4.462;2023-04-03T06:34:23;3.90;99.90
23681;DHT22;62915;50.832;4.462;2023-04-03T06:36:49;3.80;99.90
23681;DHT22;62915;50.832;4.462;2023-04-03T06:39:18;3.80;99.90
23681;DHT22;62915;50.832;4.462;2023-04-03T06:41:46;3.90;99.90
23681;DHT22;62915;50.832;4.462;2023-04-03T06:44:14;3.90;99.90
23681;DHT22;62915;50.832;4.462;2023-04-03T06:46:43;4.00;99.90
23681;DHT22;62915;50.832;4.462;2023-04-03T06:49:09;4.00;99.90
23681;DHT22;62915;50.832;4.462;2023-04-03T06:51:36;4.00;99.90
23681;DHT22;62915;50.832;4.462;2023-04-03T06:54:04;4.10;99.90
23681;DHT22;62915;50.832;4.462;2023-04-03T06:56:30;4.20;99.90
23681;DHT22;62915;50.832;4.462;2023-04-03T06:58:56;4.20;99.90
23681;DHT22;62915;50.832;4.462;2023-04-03T07:01:27;4.20;99.90
23681;DHT22;62915;50.832;4.462;2023-04-03T07:03:54;4.30;99.90
23681;DHT22;62915;50.832;4.462;2023-04-03T07:06:20;4.20;99.90
23681;DHT22;62915;50.832;4.462;2023-04-03T07:08:47;4.20;99.90
23681;DHT22;62915;50.832;4.462;2023-04-03T07:11:14;4.10;99.90
23681;DHT22;62915;50.832;4.462;2023-04-03T07:13:40;4.10;99.90
23681;DHT22;62915;50.832;4.462;2023-04-03T07:16:07;4.10;99.90
23681;DHT22;62915;50.832;4.462;2023-04-03T07:18:33;4.20;99.90
23681;DHT22;62915;50.832;4.462;2023-04-03T07:20:59;4.40;99.90
23681;DHT22;62915;50.832;4.462;2023-04-03T07:23:25;4.50;99.90
23681;DHT22;62915;50.832;4.462;2023-04-03T07:25:51;4.70;99.90
23681;DHT22;62915;50.832;4.462;2023-04-03T07:28:19;4.90;99.90
23681;DHT22;62915;50.832;4.462;2023-04-03T07:30:47;5.00;99.90
23681;DHT22;62915;50.832;4.462;2023-04-03T07:33:15;5.20;99.90
23681;DHT22;62915;50.832;4.462;2023-04-03T07:35:42;5.20;99.90
23681;DHT22;62915;50.832;4.462;2023-04-03T07:38:08;5.30;99.90
23681;DHT22;62915;50.832;4.462;2023-04-03T07:40:34;5.30;99.90
23681;DHT22;62915;50.832;4.462;2023-04-03T07:43:00;5.20;99.90
23681;DHT22;62915;50.832;4.462;2023-04-03T07:45:26;5.20;99.90
23681;DHT22;62915;50.832;4.462;2023-04-03T07:47:52;5.40;99.90
23681;DHT22;62915;50.832;4.462;2023-04-03T07:50:18;5.40;99.90
23681;DHT22;62915;50.832;4.462;2023-04-03T07:52:44;5.50;99.90
23681;DHT22;62915;50.832;4.462;2023-04-03T07:55:11;5.60;99.90
23681;DHT22;62915;50.832;4.462;2023-04-03T07:57:37;5.70;99.90
23681;DHT22;62915;50.832;4.462;2023-04-03T08:00:04;5.80;99.90
23681;DHT22;62915;50.832;4.462;2023-04-03T08:02:30;5.90;99.90
23681;DHT22;62915;50.832;4.462;2023-04-03T08:04:58;6.10;99.90
23681;DHT22;62915;50.832;4.462;2023-04-03T08:07:24;6.40;99.90
23681;DHT22;62915;50.832;4.462;2023-04-03T08:09:50;6.50;99.90
23681;DHT22;62915;50.832;4.462;2023-04-03T08:12:16;6.50;99.90
23681;DHT22;62915;50.832;4.462;2023-04-03T08:14:42;6.40;99.90
23681;DHT22;62915;50.832;4.462;2023-04-03T08:17:09;6.50;99.90
23681;DHT22;62915;50.832;4.462;2023-04-03T08:19:37;6.70;99.90
23681;DHT22;62915;50.832;4.462;2023-04-03T08:22:04;6.90;99.90
23681;DHT22;62915;50.832;4.462;2023-04-03T08:24:31;6.90;99.90
23681;DHT22;62915;50.832;4.462;2023-04-03T08:26:57;7.00;99.90
23681;DHT22;62915;50.832;4.462;2023-04-03T08:29:23;7.30;99.90
23681;DHT22;62915;50.832;4.462;2023-04-03T08:31:50;7.30;99.90
23681;DHT22;62915;50.832;4.462;2023-04-03T08:34:16;7.70;99.90
23681;DHT22;62915;50.832;4.462;2023-04-03T08:36:43;8.00;99.90
23681;DHT22;62915;50.832;4.462;2023-04-03T08:39:09;8.20;99.90
23681;DHT22;62915;50.832;4.462;2023-04-03T08:50:00;7.90;99.90
23681;DHT22;62915;50.832;4.462;2023-04-03T08:54:56;8.00;99.90
23681;DHT22;62915;50.832;4.462;2023-04-03T08:57:48;8.00;99.90
23681;DHT22;62915;50.832;4.462;2023-04-03T09:00:19;8.10;99.90
23681;DHT22;62915;50.832;4.462;2023-04-03T09:02:54;8.20;99.90
23681;DHT22;62915;50.832;4.462;2023-04-03T09:10:49;8.30;99.90
23681;DHT22;62915;50.832;4.462;2023-04-03T09:16:25;8.60;99.90
23681;DHT22;62915;50.832;4.462;2023-04-03T09:19:00;8.70;99.90
23681;DHT22;62915;50.832;4.462;2023-04-03T09:21:37;8.70;99.90
23681;DHT22;62915;50.832;4.462;2023-04-03T09:24:04;8.80;99.90
23681;DHT22;62915;50.832;4.462;2023-04-03T09:26:35;8.80;99.90
23681;DHT22;62915;50.832;4.462;2023-04-03T09:29:05;9.00;99.90
23681;DHT22;62915;50.832;4.462;2023-04-03T09:31:40;9.20;99.90
23681;DHT22;62915;50.832;4.462;2023-04-03T09:34:30;9.40;99.90
23681;DHT22;62915;50.832;4.462;2023-04-03T09:37:01;9.60;99.90
23681;DHT22;62915;50.832;4.462;2023-04-03T09:39:51;9.70;99.90
23681;DHT22;62915;50.832;4.462;2023-04-03T09:42:21;10.00;99.90
23681;DHT22;62915;50.832;4.462;2023-04-03T09:45:21;10.20;99.90
23681;DHT22;62915;50.832;4.462;2023-04-03T09:47:48;10.30;99.90
23681;DHT22;62915;50.832;4.462;2023-04-03T09:52:45;10.30;99.90
23681;DHT22;62915;50.832;4.462;2023-04-03T09:55:25;10.50;99.90
23681;DHT22;62915;50.832;4.462;2023-04-03T09:57:59;10.60;99.90
23681;DHT22;62915;50.832;4.462;2023-04-03T10:00:30;10.60;99.90
23681;DHT22;62915;50.832;4.462;2023-04-03T10:02:58;10.90;99.90
23681;DHT22;62915;50.832;4.462;2023-04-03T10:05:38;10.90;99.90
23681;DHT22;62915;50.832;4.462;2023-04-03T10:10:45;11.50;99.90
23681;DHT22;62915;50.832;4.462;2023-04-03T10:13:15;11.80;99.90
23681;DHT22;62915;50.832;4.462;2023-04-03T10:15:51;11.80;99.90
23681;DHT22;62915;50.832;4.462;2023-04-03T10:18:44;12.10;99.90
23681;DHT22;62915;50.832;4.462;2023-04-03T10:24:07;11.90;99.90
23681;DHT22;62915;50.832;4.462;2023-04-03T10:26:52;11.80;99.90
23681;DHT22;62915;50.832;4.462;2023-04-03T10:32:28;12.20;99.90
23681;DHT22;62915;50.832;4.462;2023-04-03T10:35:44;12.40;99.90
23681;DHT22;62915;50.832;4.462;2023-04-03T10:46:28;12.60;99.90
23681;DHT22;62915;50.832;4.462;2023-04-03T10:49:03;12.60;99.90
23681;DHT22;62915;50.832;4.462;2023-04-03T10:51:47;12.90;99.90
23681;DHT22;62915;50.832;4.462;2023-04-03T10:54:25;13.00;99.90
23681;DHT22;62915;50.832;4.462;2023-04-03T10:56:57;13.10;99.90
23681;DHT22;62915;50.832;4.462;2023-04-03T10:59:45;13.10;99.90
23681;DHT22;62915;50.832;4.462;2023-04-03T11:02:22;13.10;99.90
23681;DHT22;62915;50.832;4.462;2023-04-03T11:04:53;12.90;99.90
23681;DHT22;62915;50.832;4.462;2023-04-03T11:07:23;12.90;99.90
23681;DHT22;62915;50.832;4.462;2023-04-03T11:09:55;12.70;99.90
23681;DHT22;62915;50.832;4.462;2023-04-03T11:12:40;12.90;99.90
23681;DHT22;62915;50.832;4.462;2023-04-03T11:15:17;13.00;99.90
23681;DHT22;62915;50.832;4.462;2023-04-03T11:18:09;13.30;99.90
23681;DHT22;62915;50.832;4.462;2023-04-03T11:20:37;13.10;98.90
23681;DHT22;62915;50.832;4.462;2023-04-03T11:25:41;13.00;97.40
23681;DHT22;62915;50.832;4.462;2023-04-03T11:28:15;13.10;97.80
23681;DHT22;62915;50.832;4.462;2023-04-03T11:36:29;13.70;96.70
23681;DHT22;62915;50.832;4.462;2023-04-03T11:39:07;14.10;98.00
23681;DHT22;62915;50.832;4.462;2023-04-03T11:41:35;13.50;93.50
23681;DHT22;62915;50.832;4.462;2023-04-03T11:44:04;13.00;95.60
23681;DHT22;62915;50.832;4.462;2023-04-03T11:46:52;13.10;96.90
23681;DHT22;62915;50.832;4.462;2023-04-03T11:49:51;13.50;96.20
23681;DHT22;62915;50.832;4.462;2023-04-03T11:52:55;13.00;96.60
23681;DHT22;62915;50.832;4.462;2023-04-03T12:03:56;13.50;93.00
23681;DHT22;62915;50.832;4.462;2023-04-03T12:08:54;13.30;91.70
23681;DHT22;62915;50.832;4.462;2023-04-03T12:11:28;13.30;91.50
23681;DHT22;62915;50.832;4.462;2023-04-03T12:29:33;13.30;90.70
23681;DHT22;62915;50.832;4.462;2023-04-03T12:35:20;13.40;85.00
23681;DHT22;62915;50.832;4.462;2023-04-03T12:40:52;13.20;87.90
23681;DHT22;62915;50.832;4.462;2023-04-03T12:43:47;13.30;80.70
23681;DHT22;62915;50.832;4.462;2023-04-03T12:46:23;13.40;84.70
23681;DHT22;62915;50.832;4.462;2023-04-03T12:48:53;13.60;84.60
23681;DHT22;62915;50.832;4.462;2023-04-03T12:54:04;13.30;79.30
23681;DHT22;62915;50.832;4.462;2023-04-03T12:56:38;13.40;82.50
23681;DHT22;62915;50.832;4.462;2023-04-03T12:59:34;13.60;86.30
23681;DHT22;62915;50.832;4.462;2023-04-03T13:02:01;13.50;82.90
23681;DHT22;62915;50.832;4.462;2023-04-03T13:04:29;13.50;81.30
23681;DHT22;62915;50.832;4.462;2023-04-03T13:06:55;13.80;81.40
23681;DHT22;62915;50.832;4.462;2023-04-03T13:09:29;13.80;74.70
23681;DHT22;62915;50.832;4.462;2023-04-03T13:14:23;13.50;76.80
23681;DHT22;62915;50.832;4.462;2023-04-03T13:17:21;13.60;79.70
23681;DHT22;62915;50.832;4.462;2023-04-03T13:19:45;13.60;77.00
23681;DHT22;62915;50.832;4.462;2023-04-03T13:22:26;13.90;80.90
23681;DHT22;62915;50.832;4.462;2023-04-03T13:24:54;13.90;74.50
23681;DHT22;62915;50.832;4.462;2023-04-03T13:27:21;13.80;74.40
23681;DHT22;62915;50.832;4.462;2023-04-03T13:29:52;13.80;75.70
23681;DHT22;62915;50.832;4.462;2023-04-03T13:32:21;13.50;76.00
23681;DHT22;62915;50.832;4.462;2023-04-03T13:34:48;13.50;73.40
23681;DHT22;62915;50.832;4.462;2023-04-03T13:37:25;13.70;76.30
23681;DHT22;62915;50.832;4.462;2023-04-03T13:42:34;13.80;80.40
23681;DHT22;62915;50.832;4.462;2023-04-03T13:45:23;14.00;72.90
23681;DHT22;62915;50.832;4.462;2023-04-03T13:48:06;13.80;72.50
23681;DHT22;62915;50.832;4.462;2023-04-03T13:50:32;13.70;76.90
23681;DHT22;62915;50.832;4.462;2023-04-03T13:53:09;13.80;76.70
23681;DHT22;62915;50.832;4.462;2023-04-03T13:58:24;13.50;74.50
23681;DHT22;62915;50.832;4.462;2023-04-03T14:03:42;13.60;77.10
23681;DHT22;62915;50.832;4.462;2023-04-03T14:06:11;13.40;75.10
23681;DHT22;62915;50.832;4.462;2023-04-03T14:08:38;13.40;76.30
23681;DHT22;62915;50.832;4.462;2023-04-03T14:11:03;13.00;76.40
23681;DHT22;62915;50.832;4.462;2023-04-03T14:13:30;13.20;83.30
23681;DHT22;62915;50.832;4.462;2023-04-03T14:15:56;13.30;79.60
23681;DHT22;62915;50.832;4.462;2023-04-03T14:18:22;13.50;78.20
23681;DHT22;62915;50.832;4.462;2023-04-03T14:20:49;13.60;77.50
23681;DHT22;62915;50.832;4.462;2023-04-03T14:23:15;13.50;74.10
23681;DHT22;62915;50.832;4.462;2023-04-03T14:25:41;13.50;74.90
23681;DHT22;62915;50.832;4.462;2023-04-03T14:28:19;13.30;75.50
23681;DHT22;62915;50.832;4.462;2023-04-03T14:30:48;13.20;80.00
23681;DHT22;62915;50.832;4.462;2023-04-03T14:33:18;13.30;75.80
23681;DHT22;62915;50.832;4.462;2023-04-03T14:35:45;13.30;77.00
23681;DHT22;62915;50.832;4.462;2023-04-03T14:38:28;13.30;74.60
23681;DHT22;62915;50.832;4.462;2023-04-03T14:40:56;13.10;74.50
23681;DHT22;62915;50.832;4.462;2023-04-03T14:43:21;13.00;74.90
23681;DHT22;62915;50.832;4.462;2023-04-03T14:45:49;13.20;74.70
23681;DHT22;62915;50.832;4.462;2023-04-03T14:48:21;13.40;73.50
23681;DHT22;62915;50.832;4.462;2023-04-03T14:50:47;13.40;72.80
23681;DHT22;62915;50.832;4.462;2023-04-03T14:53:14;13.40;71.60
23681;DHT22;62915;50.832;4.462;2023-04-03T14:55:45;13.00;70.40
23681;DHT22;62915;50.832;4.462;2023-04-03T14:58:16;12.90;72.60
23681;DHT22;62915;50.832;4.462;2023-04-03T15:00:42;12.60;72.40
23681;DHT22;62915;50.832;4.462;2023-04-03T15:03:21;12.90;74.50
23681;DHT22;62915;50.832;4.462;2023-04-03T15:05:48;12.80;72.90
23681;DHT22;62915;50.832;4.462;2023-04-03T15:10:43;12.80;74.50
23681;DHT22;62915;50.832;4.462;2023-04-03T15:13:11;12.80;73.10
23681;DHT22;62915;50.832;4.462;2023-04-03T15:15:37;12.80;72.70
23681;DHT22;62915;50.832;4.462;2023-04-03T15:18:03;12.80;73.30
23681;DHT22;62915;50.832;4.462;2023-04-03T15:20:30;12.60;74.90
23681;DHT22;62915;50.832;4.462;2023-04-03T15:22:59;12.70;77.00
23681;DHT22;62915;50.832;4.462;2023-04-03T15:25:28;12.70;75.90
23681;DHT22;62915;50.832;4.462;2023-04-03T15:27:55;12.40;78.20
23681;DHT22;62915;50.832;4.462;2023-04-03T15:30:24;12.10;77.00
23681;DHT22;62915;50.832;4.462;2023-04-03T15:32:50;12.20;79.50
23681;DHT22;62915;50.832;4.462;2023-04-03T15:35:16;12.10;79.20
23681;DHT22;62915;50.832;4.462;2023-04-03T15:37:43;12.10;81.20
23681;DHT22;62915;50.832;4.462;2023-04-03T15:40:09;12.30;82.20
23681;DHT22;62915;50.832;4.462;2023-04-03T15:42:35;12.60;86.30
23681;DHT22;62915;50.832;4.462;2023-04-03T15:45:01;12.50;79.00
23681;DHT22;62915;50.832;4.462;2023-04-03T15:47:27;12.20;78.90
23681;DHT22;62915;50.832;4.462;2023-04-03T15:49:54;11.90;78.10
23681;DHT22;62915;50.832;4.462;2023-04-03T15:52:21;11.80;79.20
23681;DHT22;62915;50.832;4.462;2023-04-03T15:54:46;11.80;81.70
23681;DHT22;62915;50.832;4.462;2023-04-03T15:57:12;11.80;81.90
23681;DHT22;62915;50.832;4.462;2023-04-03T15:59:38;11.70;82.70
23681;DHT22;62915;50.832;4.462;2023-04-03T16:02:06;11.90;81.30
23681;DHT22;62915;50.832;4.462;2023-04-03T16:04:33;11.90;82.20
23681;DHT22;62915;50.832;4.462;2023-04-03T16:07:03;11.90;83.60
23681;DHT22;62915;50.832;4.462;2023-04-03T16:09:31;12.10;82.20
23681;DHT22;62915;50.832;4.462;2023-04-03T16:11:59;12.30;86.40
23681;DHT22;62915;50.832;4.462;2023-04-03T16:14:26;12.40;83.40
23681;DHT22;62915;50.832;4.462;2023-04-03T16:16:53;12.10;80.80
23681;DHT22;62915;50.832;4.462;2023-04-03T16:19:19;11.80;82.60
23681;DHT22;62915;50.832;4.462;2023-04-03T16:21:45;11.80;82.60
23681;DHT22;62915;50.832;4.462;2023-04-03T16:24:12;11.50;83.90
23681;DHT22;62915;50.832;4.462;2023-04-03T16:26:37;11.40;85.10
23681;DHT22;62915;50.832;4.462;2023-04-03T16:29:03;11.40;84.50
23681;DHT22;62915;50.832;4.462;2023-04-03T16:31:32;11.30;86.20
23681;DHT22;62915;50.832;4.462;2023-04-03T16:34:01;11.20;85.00
23681;DHT22;62915;50.832;4.462;2023-04-03T16:36:27;11.30;85.60
23681;DHT22;62915;50.832;4.462;2023-04-03T16:38:53;11.20;87.00
23681;DHT22;62915;50.832;4.462;2023-04-03T16:41:19;11.20;89.40
23681;DHT22;62915;50.832;4.462;2023-04-03T16:43:45;11.00;88.50
23681;DHT22;62915;50.832;4.462;2023-04-03T16:46:10;11.00;88.10
23681;DHT22;62915;50.832;4.462;2023-04-03T16:48:36;11.00;88.60
23681;DHT22;62915;50.832;4.462;2023-04-03T16:51:02;11.10;87.50
23681;DHT22;62915;50.832;4.462;2023-04-03T16:53:28;11.00;89.60
23681;DHT22;62915;50.832;4.462;2023-04-03T16:55:54;11.10;89.80
23681;DHT22;62915;50.832;4.462;2023-04-03T16:58:20;11.10;88.00
23681;DHT22;62915;50.832;4.462;2023-04-03T17:00:46;11.10;88.50
23681;DHT22;62915;50.832;4.462;2023-04-03T17:03:12;11.10;89.40
23681;DHT22;62915;50.832;4.462;2023-04-03T17:05:38;11.10;90.20
23681;DHT22;62915;50.832;4.462;2023-04-03T17:08:04;11.20;90.50
23681;DHT22;62915;50.832;4.462;2023-04-03T17:10:30;11.10;89.50
23681;DHT22;62915;50.832;4.462;2023-04-03T17:12:56;11.20;90.30
23681;DHT22;62915;50.832;4.462;2023-04-03T17:15:22;11.30;90.00
23681;DHT22;62915;50.832;4.462;2023-04-03T17:17:49;11.10;90.70
23681;DHT22;62915;50.832;4.462;2023-04-03T17:20:16;10.90;90.20
23681;DHT22;62915;50.832;4.462;2023-04-03T17:22:42;10.90;91.20
23681;DHT22;62915;50.832;4.462;2023-04-03T17:25:10;10.80;90.60
23681;DHT22;62915;50.832;4.462;2023-04-03T17:27:35;10.70;90.80
23681;DHT22;62915;50.832;4.462;2023-04-03T17:30:02;10.60;91.30